Time;durP1;ratioP1;P1;durP2;ratioP2;P2;SDS_P1;SDS_P2;PMS_P1;PMS_P2;Temp;Humidity;BMP_temperature;BMP_pressure;BME280_temperature;BME280_humidity;BME280_pressure;Samples;Min_cycle;Max_cycle;Signal;HPM_P1;HPM_P2
2023/03/27 00:01:24;;;;;;;1.90;0.68;;;;;;;12.99;64.44;98281.25;5304663;26;32606;-81
2023/03/27 00:03:54;;;;;;;0.10;0.10;;;;;;;12.99;64.54;98275.94;5305193;26;34055;-81
2023/03/27 00:06:23;;;;;;;0.00;0.00;;;;;;;13.06;64.19;98279.81;5305135;26;33508;-81
2023/03/27 00:08:52;;;;;;;0.00;0.00;;;;;;;13.14;63.90;98273.06;5323511;26;34403;-82
2023/03/27 00:11:23;;;;;;;1.23;0.85;;;;;;;13.12;64.09;98261.75;5305169;26;32256;-83
2023/03/27 00:13:53;;;;;;;0.00;0.00;;;;;;;13.12;64.12;98264.41;5323955;26;32511;-82
2023/03/27 00:16:25;;;;;;;0.20;0.20;;;;;;;13.08;64.22;98269.09;5322634;26;33572;-82
2023/03/27 00:18:54;;;;;;;0.00;0.00;;;;;;;13.10;63.89;98263.66;5304859;26;33907;-82
2023/03/27 00:21:24;;;;;;;0.28;0.28;;;;;;;13.11;63.95;98258.28;5323258;26;33013;-83
2023/03/27 00:23:56;;;;;;;0.00;0.00;;;;;;;13.32;63.15;98250.44;5305726;26;33620;-83
2023/03/27 00:26:24;;;;;;;0.00;0.00;;;;;;;13.26;63.01;98250.94;5304678;26;33349;-83
2023/03/27 00:28:52;;;;;;;0.10;0.10;;;;;;;13.21;63.40;98248.63;5305208;26;33147;-82
2023/03/27 00:31:20;;;;;;;0.00;0.00;;;;;;;13.28;62.97;98239.25;5322993;26;33012;-82
2023/03/27 00:33:49;;;;;;;0.20;0.10;;;;;;;13.24;63.27;98236.94;5323248;26;33648;-82
2023/03/27 00:36:17;;;;;;;0.00;0.00;;;;;;;13.09;63.67;98233.69;5315071;27;101830;-82
2023/03/27 00:38:44;;;;;;;0.00;0.00;;;;;;;13.05;64.04;98242.81;5311674;26;34124;-82
2023/03/27 00:41:12;;;;;;;0.00;0.00;;;;;;;13.00;64.21;98234.41;5305329;26;33489;-82
2023/03/27 00:43:42;;;;;;;0.80;0.50;;;;;;;13.05;64.11;98225.16;5304405;26;34993;-82
2023/03/27 00:46:14;;;;;;;0.37;0.20;;;;;;;13.32;62.80;98222.12;5305207;26;33246;-81
2023/03/27 00:48:46;;;;;;;0.00;0.00;;;;;;;13.40;62.33;98212.72;5304861;26;32584;-81
2023/03/27 00:51:15;;;;;;;0.20;0.15;;;;;;;13.35;62.42;98218.41;5322432;26;33438;-82
2023/03/27 00:53:45;;;;;;;0.00;0.00;;;;;;;13.06;63.40;98213.59;5322845;26;32483;-82
2023/03/27 00:56:15;;;;;;;0.20;0.20;;;;;;;13.14;63.26;98214.75;5323112;26;34603;-82
2023/03/27 00:58:47;;;;;;;0.00;0.00;;;;;;;13.25;63.14;98201.56;5323111;26;33913;-81
2023/03/27 01:01:16;;;;;;;0.55;0.55;;;;;;;13.07;63.40;98204.66;5323091;26;33463;-82
2023/03/27 01:03:45;;;;;;;0.00;0.00;;;;;;;13.12;63.63;98204.28;5322938;26;33475;-81
2023/03/27 01:06:15;;;;;;;0.37;0.20;;;;;;;13.36;62.78;98188.28;5303944;26;32749;-81
2023/03/27 01:08:45;;;;;;;1.45;0.25;;;;;;;13.34;62.17;98179.59;5287084;26;32430;-81
2023/03/27 01:12:00;;;;;;;0.30;0.20;;;;;;;12.97;63.74;98189.63;5304137;26;32731;-82
2023/03/27 01:14:56;;;;;;;0.20;0.20;;;;;;;12.84;64.34;98180.94;5277926;27;33560;-81
2023/03/27 01:17:33;;;;;;;0.95;0.55;;;;;;;12.99;64.16;98179.72;5277720;27;33544;-82
2023/03/27 01:20:31;;;;;;;0.10;0.10;;;;;;;12.39;65.95;98171.19;5296463;26;33791;-81
2023/03/27 01:23:05;;;;;;;0.00;0.00;;;;;;;12.86;64.49;98179.00;5322526;26;33746;-81
2023/03/27 01:26:04;;;;;;;0.13;0.03;;;;;;;12.80;64.71;98172.41;5342271;26;33728;-82
2023/03/27 01:28:36;;;;;;;0.00;0.00;;;;;;;13.15;63.44;98163.44;5304594;26;33056;-82
2023/03/27 01:31:23;;;;;;;0.00;0.00;;;;;;;12.85;64.82;98159.62;5342525;26;33884;-82
2023/03/27 01:34:02;;;;;;;0.20;0.20;;;;;;;12.89;65.22;98158.44;5304425;26;32535;-82
2023/03/27 01:36:57;;;;;;;0.20;0.20;;;;;;;13.20;63.69;98158.66;5323173;26;34177;-83
2023/03/27 01:39:59;;;;;;;0.13;0.13;;;;;;;13.03;64.03;98154.69;5342365;26;33542;-83
2023/03/27 01:42:45;;;;;;;0.55;0.55;;;;;;;12.85;64.98;98154.31;5318329;26;33653;-82
2023/03/27 01:45:19;;;;;;;0.00;0.00;;;;;;;12.53;65.97;98147.13;5304276;26;33616;-83
2023/03/27 01:47:58;;;;;;;0.65;0.57;;;;;;;12.40;66.53;98143.75;5323135;26;34398;-82
2023/03/27 01:50:36;;;;;;;0.10;0.10;;;;;;;12.56;66.16;98138.94;5304893;26;32777;-83
2023/03/27 01:53:14;;;;;;;0.00;0.00;;;;;;;12.69;65.59;98130.88;5286611;26;33526;-83
2023/03/27 01:55:46;;;;;;;0.90;0.80;;;;;;;12.63;65.56;98128.72;5323076;26;32886;-83
2023/03/27 01:58:19;;;;;;;0.00;0.00;;;;;;;12.64;65.47;98140.16;5305421;26;32447;-83
2023/03/27 02:00:52;;;;;;;0.00;0.00;;;;;;;12.64;65.55;98138.34;5305509;26;33376;-83
2023/03/27 02:03:25;;;;;;;0.00;0.00;;;;;;;12.70;65.38;98131.72;5305745;26;34030;-83
2023/03/27 02:05:59;;;;;;;0.00;0.00;;;;;;;12.65;65.30;98133.87;5287491;26;32687;-83
2023/03/27 02:08:35;;;;;;;0.00;0.00;;;;;;;12.68;64.98;98131.84;5305766;26;33197;-83
2023/03/27 02:11:04;;;;;;;0.00;0.00;;;;;;;12.55;65.53;98133.75;5286865;26;33330;-83
2023/03/27 02:13:45;;;;;;;0.55;0.47;;;;;;;12.53;65.39;98131.25;5305260;26;33300;-83
2023/03/27 02:16:18;;;;;;;0.15;0.15;;;;;;;12.30;66.50;98134.84;5305704;26;32283;-84
2023/03/27 02:18:55;;;;;;;0.98;0.90;;;;;;;12.32;65.93;98137.34;5323778;26;33873;-84
2023/03/27 02:21:23;;;;;;;0.00;0.00;;;;;;;12.78;64.34;98124.00;5323466;26;33374;-83
2023/03/27 02:23:52;;;;;;;0.00;0.00;;;;;;;13.02;63.08;98106.16;5323841;26;33589;-84
2023/03/27 02:26:21;;;;;;;0.13;0.13;;;;;;;13.07;62.89;98098.66;5305201;26;33549;-84
2023/03/27 02:29:07;;;;;;;0.10;0.10;;;;;;;12.45;64.71;98096.59;5323588;26;34010;-84
2023/03/27 02:31:41;;;;;;;0.10;0.10;;;;;;;12.78;63.74;98081.63;5305219;26;34002;-83
2023/03/27 02:34:23;;;;;;;0.00;0.00;;;;;;;12.71;63.78;98070.66;5343449;26;34323;-84
2023/03/27 02:37:08;;;;;;;0.13;0.13;;;;;;;12.76;63.77;98068.50;5324063;26;33206;-84
2023/03/27 02:40:13;;;;;;;0.00;0.00;;;;;;;12.73;63.72;98059.97;5306323;26;33064;-83
2023/03/27 02:42:59;;;;;;;0.13;0.13;;;;;;;12.64;64.35;98052.78;5323683;26;33232;-84
2023/03/27 02:45:57;;;;;;;0.00;0.00;;;;;;;12.39;65.19;98051.19;5323294;26;33156;-83
2023/03/27 02:48:34;;;;;;;0.95;0.65;;;;;;;12.35;65.23;98041.84;5323866;26;32986;-86
2023/03/27 02:51:06;;;;;;;0.45;0.35;;;;;;;12.36;65.87;98044.38;5305240;26;33729;-86
2023/03/27 02:53:39;;;;;;;0.00;0.00;;;;;;;12.51;65.49;98047.59;5305485;26;34472;-85
2023/03/27 02:56:09;;;;;;;0.00;0.00;;;;;;;12.63;64.64;98036.03;5305184;26;33395;-85
2023/03/27 02:58:46;;;;;;;0.00;0.00;;;;;;;12.56;65.02;98040.97;5305680;26;31989;-86
2023/03/27 03:01:17;;;;;;;0.10;0.10;;;;;;;12.43;65.81;98029.66;5305174;26;32851;-85
2023/03/27 03:03:52;;;;;;;0.00;0.00;;;;;;;12.46;65.63;98031.25;5315534;26;34051;-86
2023/03/27 03:06:28;;;;;;;0.00;0.00;;;;;;;12.62;65.04;98026.37;5323747;26;33892;-86
2023/03/27 03:09:01;;;;;;;0.10;0.10;;;;;;;12.74;64.29;98027.22;5306424;26;33156;-86
2023/03/27 03:11:29;;;;;;;0.00;0.00;;;;;;;12.77;63.75;98021.66;5287541;26;34084;-84
2023/03/27 03:13:57;;;;;;;0.00;0.00;;;;;;;12.69;64.22;98027.59;5304855;26;32988;-84
2023/03/27 03:16:28;;;;;;;0.20;0.20;;;;;;;12.76;64.08;98025.28;5323964;26;33876;-84
2023/03/27 03:18:56;;;;;;;1.45;0.40;;;;;;;12.59;64.63;98024.00;5304851;26;32833;-84
2023/03/27 03:21:24;;;;;;;0.00;0.00;;;;;;;12.46;65.34;98018.00;5304899;26;33804;-84
2023/03/27 03:23:52;;;;;;;0.00;0.00;;;;;;;12.53;65.32;98025.34;5323719;26;34039;-84
2023/03/27 03:26:26;;;;;;;0.00;0.00;;;;;;;12.60;64.96;98025.69;5306127;26;33342;-84
2023/03/27 03:28:56;;;;;;;0.00;0.00;;;;;;;12.83;64.04;98029.13;5323092;26;33395;-84
2023/03/27 03:31:41;;;;;;;0.00;0.00;;;;;;;12.68;64.32;98028.56;5324746;26;33803;-83
2023/03/27 03:34:15;;;;;;;0.00;0.00;;;;;;;12.47;64.90;98020.53;5326205;26;34002;-83
2023/03/27 03:36:48;;;;;;;;;;;;;;;12.56;64.44;98019.78;5306491;26;33617;-82
2023/03/27 03:39:17;;;;;;;0.00;0.00;;;;;;;12.53;64.85;98024.47;5322993;26;33010;-83
2023/03/27 03:41:47;;;;;;;0.00;0.00;;;;;;;12.22;65.81;98026.09;5304799;26;32863;-83
2023/03/27 03:44:14;;;;;;;0.10;0.10;;;;;;;12.41;65.27;98026.31;5323177;26;33182;-83
2023/03/27 03:46:42;;;;;;;0.00;0.00;;;;;;;12.52;64.91;98028.09;5323176;26;32588;-83
2023/03/27 03:49:12;;;;;;;0.30;0.28;;;;;;;12.59;64.57;98015.22;5305431;26;33373;-83
2023/03/27 03:51:40;;;;;;;0.10;0.10;;;;;;;12.29;65.65;98011.37;5323281;26;32792;-82
2023/03/27 03:54:09;;;;;;;0.00;0.00;;;;;;;12.50;64.92;98014.16;5322509;26;33299;-83
2023/03/27 03:56:44;;;;;;;0.40;0.30;;;;;;;12.66;64.44;98013.75;5305346;26;33199;-82
2023/03/27 03:59:12;;;;;;;0.60;0.57;;;;;;;12.64;64.54;98010.41;5287309;26;32005;-83
2023/03/27 04:01:52;;;;;;;0.43;0.43;;;;;;;12.42;65.13;98012.09;5322775;26;32517;-83
2023/03/27 04:04:20;;;;;;;0.10;0.10;;;;;;;12.44;65.20;98009.34;5305026;26;34592;-83
2023/03/27 04:06:51;;;;;;;0.00;0.00;;;;;;;12.49;65.06;98010.66;5305270;26;33041;-83
2023/03/27 04:09:25;;;;;;;0.08;0.08;;;;;;;12.51;64.83;98008.72;5305388;26;32071;-84
2023/03/27 04:11:53;;;;;;;0.00;0.00;;;;;;;12.44;64.92;98009.34;5305251;26;33360;-83
2023/03/27 04:14:22;;;;;;;0.00;0.00;;;;;;;12.59;64.58;98004.63;5304874;26;32825;-83
2023/03/27 04:16:53;;;;;;;0.13;0.13;;;;;;;12.46;64.78;98002.13;5304264;26;32509;-83
2023/03/27 04:19:22;;;;;;;0.00;0.00;;;;;;;12.67;64.30;98008.31;5323017;26;33847;-83
2023/03/27 04:21:55;;;;;;;0.00;0.00;;;;;;;12.75;63.53;98005.06;5305657;26;33520;-83
2023/03/27 04:24:25;;;;;;;4.13;1.17;;;;;;;12.49;64.37;98008.03;5305080;26;33921;-83
2023/03/27 04:26:57;;;;;;;0.37;0.35;;;;;;;12.67;63.78;98012.78;5305252;26;33996;-83
2023/03/27 04:29:30;;;;;;;0.00;0.00;;;;;;;12.49;64.68;98002.72;5304372;26;32256;-83
2023/03/27 04:32:09;;;;;;;0.10;0.10;;;;;;;12.66;64.25;98008.47;5325332;26;33579;-83
2023/03/27 04:34:49;;;;;;;0.00;0.00;;;;;;;12.57;64.31;98004.75;5306473;26;32694;-83
2023/03/27 04:37:18;;;;;;;1.08;0.62;;;;;;;12.61;63.95;97998.25;5324109;26;34521;-83
2023/03/27 04:39:57;;;;;;;0.20;0.10;;;;;;;12.59;64.25;97997.53;5301987;26;32775;-83
2023/03/27 04:42:25;;;;;;;1.67;0.65;;;;;;;12.46;64.42;98000.31;5304816;26;33386;-83
2023/03/27 04:44:54;;;;;;;2.75;0.70;;;;;;;12.67;63.84;97999.53;5304187;26;32479;-83
2023/03/27 04:47:22;;;;;;;0.00;0.00;;;;;;;12.72;63.28;97994.72;5323002;26;35159;-83
2023/03/27 04:49:53;;;;;;;0.28;0.20;;;;;;;12.63;63.83;98003.41;5321961;26;33741;-84
2023/03/27 04:52:24;;;;;;;0.30;0.30;;;;;;;12.55;64.06;97996.94;5304991;26;34042;-83
2023/03/27 04:54:54;;;;;;;0.10;0.10;;;;;;;12.62;63.86;97996.44;5341189;26;34850;-84
2023/03/27 04:57:26;;;;;;;0.10;0.10;;;;;;;12.69;63.57;97990.53;5305067;26;33346;-83
2023/03/27 04:59:59;;;;;;;0.00;0.00;;;;;;;12.46;64.26;97987.06;5322526;26;33716;-84
2023/03/27 05:02:38;;;;;;;1.95;0.52;;;;;;;12.36;65.20;97986.13;5307315;26;34449;-83
2023/03/27 05:05:09;;;;;;;0.55;0.55;;;;;;;12.51;64.87;97984.06;5323147;26;34082;-83
2023/03/27 05:07:38;;;;;;;0.00;0.00;;;;;;;12.59;63.96;97981.66;5321962;26;34049;-83
2023/03/27 05:10:10;;;;;;;0.62;0.32;;;;;;;12.67;63.74;97967.78;5304717;26;32812;-83
2023/03/27 05:12:44;;;;;;;0.03;0.03;;;;;;;12.68;63.66;97967.66;5304658;26;32980;-83
2023/03/27 05:15:14;;;;;;;1.98;0.37;;;;;;;12.56;64.23;97966.00;5323008;26;34784;-84
2023/03/27 05:17:53;;;;;;;0.37;0.37;;;;;;;12.55;64.45;97970.47;5324328;26;33945;-83
2023/03/27 05:20:23;;;;;;;0.00;0.00;;;;;;;12.34;65.02;97972.16;5340093;26;33500;-84
2023/03/27 05:22:55;;;;;;;0.10;0.10;;;;;;;12.22;65.61;97974.00;5304199;26;32467;-85
2023/03/27 05:25:25;;;;;;;0.00;0.00;;;;;;;12.18;66.14;97963.78;5341028;26;34135;-86
2023/03/27 05:27:53;;;;;;;0.10;0.10;;;;;;;12.34;65.78;97974.81;5322510;26;33856;-85
2023/03/27 05:30:25;;;;;;;0.00;0.00;;;;;;;12.36;65.61;97970.25;5286916;26;34155;-86
2023/03/27 05:33:12;;;;;;;0.13;0.13;;;;;;;12.51;63.84;97968.19;5342470;26;34564;-86
2023/03/27 05:35:45;;;;;;;0.00;0.00;;;;;;;12.35;64.37;97971.22;5324177;26;33528;-85
2023/03/27 05:38:14;;;;;;;0.00;0.00;;;;;;;12.33;64.47;97965.19;5324232;26;33687;-85
2023/03/27 05:40:43;;;;;;;0.00;0.00;;;;;;;12.42;64.12;97967.09;5323434;26;33429;-85
2023/03/27 05:45:52;;;;;;;0.37;0.37;;;;;;;12.34;64.01;97961.59;5307278;26;34133;-85
2023/03/27 05:48:21;;;;;;;0.15;0.15;;;;;;;12.36;63.97;97959.66;5307059;26;32029;-85
2023/03/27 05:50:49;;;;;;;0.47;0.47;;;;;;;12.36;64.12;97956.19;5305646;26;33030;-85
2023/03/27 05:53:18;;;;;;;1.85;1.75;;;;;;;12.41;64.36;97952.19;5305177;26;33973;-84
2023/03/27 05:55:55;;;;;;;0.77;0.77;;;;;;;12.41;64.45;97956.66;5326082;26;33716;-84
2023/03/27 05:58:35;;;;;;;0.13;0.13;;;;;;;12.44;64.52;97951.13;5307401;26;33737;-84
2023/03/27 06:01:09;;;;;;;0.88;0.82;;;;;;;12.35;64.95;97952.69;5323744;26;33441;-83
2023/03/27 06:03:40;;;;;;;0.43;0.37;;;;;;;12.38;65.06;97949.78;5305328;26;34856;-81
2023/03/27 06:06:14;;;;;;;0.40;0.40;;;;;;;12.30;65.28;97944.28;5305739;26;34053;-82
2023/03/27 06:08:45;;;;;;;0.32;0.30;;;;;;;12.18;65.84;97951.37;5323382;26;33673;-83
2023/03/27 06:11:22;;;;;;;5.43;0.43;;;;;;;12.11;65.39;97949.38;5325220;26;33341;-84
2023/03/27 06:13:57;;;;;;;1.70;1.60;;;;;;;12.17;65.71;97944.41;5306416;26;33480;-84
2023/03/27 06:16:31;;;;;;;1.30;1.17;;;;;;;12.22;65.68;97947.53;5305764;26;33446;-82
2023/03/27 06:19:01;;;;;;;1.75;0.90;;;;;;;12.21;65.14;97939.72;5323822;26;33167;-82
2023/03/27 06:21:30;;;;;;;0.13;0.13;;;;;;;12.18;65.52;97935.50;5323511;26;32273;-82
2023/03/27 06:24:00;;;;;;;1.55;0.75;;;;;;;12.01;66.32;97936.88;5304934;26;34974;-82
2023/03/27 06:26:41;;;;;;;4.72;0.82;;;;;;;12.27;65.65;97926.84;5324834;26;35506;-82
2023/03/27 06:29:13;;;;;;;0.00;0.00;;;;;;;12.31;65.18;97930.09;5323913;26;33233;-82
2023/03/27 06:31:47;;;;;;;0.13;0.13;;;;;;;12.35;65.03;97925.41;5322766;26;33759;-81
2023/03/27 06:34:23;;;;;;;0.10;0.10;;;;;;;12.47;64.12;97930.53;5341643;26;34681;-83
2023/03/27 06:36:54;;;;;;;0.03;0.03;;;;;;;12.14;64.98;97931.44;5304517;26;34069;-81
2023/03/27 06:39:26;;;;;;;0.20;0.20;;;;;;;12.11;65.38;97934.34;5304657;26;32850;-81
2023/03/27 06:42:04;;;;;;;0.00;0.00;;;;;;;12.12;65.17;97929.88;5342244;26;33082;-81
2023/03/27 06:44:35;;;;;;;0.13;0.10;;;;;;;12.24;64.70;97935.00;5304333;26;33078;-81
2023/03/27 06:47:07;;;;;;;0.00;0.00;;;;;;;11.94;65.52;97937.47;5322938;26;34050;-81
2023/03/27 06:49:37;;;;;;;0.00;0.00;;;;;;;12.17;64.98;97935.66;5304602;26;32895;-81
2023/03/27 06:52:08;;;;;;;;;;;;;;;11.96;65.67;97941.69;5322535;26;32094;-82
2023/03/27 06:54:40;;;;;;;0.10;0.10;;;;;;;11.90;66.49;97938.66;5342552;26;33880;-82
2023/03/27 06:57:12;;;;;;;0.50;0.50;;;;;;;11.87;66.43;97944.19;5323465;26;33810;-82
2023/03/27 06:59:42;;;;;;;0.30;0.08;;;;;;;11.69;67.20;97943.81;5304166;26;32970;-82
2023/03/27 07:02:12;;;;;;;0.15;0.15;;;;;;;11.70;67.47;97948.13;5304880;26;32239;-82
2023/03/27 07:04:45;;;;;;;0.98;0.52;;;;;;;11.68;67.67;97952.69;5323385;26;35202;-83
2023/03/27 07:07:33;;;;;;;0.00;0.00;;;;;;;11.69;67.42;97955.22;5306943;26;34252;-81
2023/03/27 07:10:03;;;;;;;0.00;0.00;;;;;;;11.73;67.68;97953.19;5323670;26;35204;-82
2023/03/27 07:12:35;;;;;;;0.13;0.13;;;;;;;12.02;66.71;97956.22;5324455;26;34066;-82
2023/03/27 07:15:09;;;;;;;0.15;0.15;;;;;;;12.18;66.03;97961.13;5304801;26;33031;-82
2023/03/27 07:17:39;;;;;;;0.00;0.00;;;;;;;12.22;65.43;97958.13;5287401;26;32416;-81
2023/03/27 07:20:19;;;;;;;0.20;0.20;;;;;;;12.40;64.41;97947.88;5307047;26;32725;-81
2023/03/27 07:23:01;;;;;;;0.20;0.20;;;;;;;12.16;65.74;97949.84;5298669;26;32071;-80
2023/03/27 07:25:36;;;;;;;0.37;0.37;;;;;;;12.19;65.43;97954.88;5324135;26;33817;-81
2023/03/27 07:28:12;;;;;;;0.13;0.10;;;;;;;12.23;65.64;97948.38;5304690;26;34251;-82
2023/03/27 07:30:44;;;;;;;0.00;0.00;;;;;;;12.29;65.65;97954.00;5305601;26;32317;-81
2023/03/27 07:33:15;;;;;;;1.55;0.17;;;;;;;12.10;66.62;97955.59;5322565;26;33395;-81
2023/03/27 07:35:54;;;;;;;0.50;0.50;;;;;;;12.13;66.64;97952.72;5306657;26;33669;-81
2023/03/27 07:38:29;;;;;;;0.00;0.00;;;;;;;12.26;66.20;97958.72;5338389;26;33393;-84
2023/03/27 07:41:10;;;;;;;0.22;0.22;;;;;;;12.49;65.19;97957.72;5325847;26;33678;-81
2023/03/27 07:43:41;;;;;;;0.20;0.20;;;;;;;12.33;65.74;97967.84;5323863;26;33415;-81
2023/03/27 07:46:09;;;;;;;0.20;0.20;;;;;;;12.36;65.86;97964.97;5323188;26;33071;-81
2023/03/27 07:48:42;;;;;;;0.10;0.10;;;;;;;12.40;65.60;97965.56;5323338;26;34559;-82
2023/03/27 07:51:14;;;;;;;0.00;0.00;;;;;;;12.18;66.73;97969.91;5322816;26;32833;-81
2023/03/27 07:53:46;;;;;;;0.20;0.13;;;;;;;12.27;66.30;97965.69;5304263;26;33619;-82
2023/03/27 07:56:14;;;;;;;0.03;0.03;;;;;;;12.45;65.08;97952.81;5322865;26;33775;-81
2023/03/27 07:58:44;;;;;;;0.37;0.37;;;;;;;12.50;64.98;97953.28;5304207;26;33473;-81
2023/03/27 08:01:17;;;;;;;14.07;6.22;;;;;;;12.63;64.18;97947.78;5324010;26;33456;-81
2023/03/27 08:03:47;;;;;;;8.77;1.98;;;;;;;12.66;63.84;97952.84;5341830;26;33447;-81
2023/03/27 08:06:19;;;;;;;0.55;0.55;;;;;;;12.19;63.68;97952.22;5304952;26;33127;-81
2023/03/27 08:08:51;;;;;;;0.00;0.00;;;;;;;11.88;63.67;97954.66;5343318;26;33895;-81
2023/03/27 08:11:21;;;;;;;0.10;0.10;;;;;;;11.91;63.70;97964.97;5287252;26;32332;-82
2023/03/27 08:13:58;;;;;;;0.00;0.00;;;;;;;11.45;65.31;97976.47;5305622;26;32341;-82
2023/03/27 08:16:29;;;;;;;0.08;0.08;;;;;;;11.45;65.19;97984.38;5305197;26;32843;-81
2023/03/27 08:19:05;;;;;;;0.15;0.15;;;;;;;11.54;64.79;97993.41;5324871;26;34767;-81
2023/03/27 08:21:42;;;;;;;0.00;0.00;;;;;;;11.29;66.25;97989.13;5323960;26;34623;-82
2023/03/27 08:24:11;;;;;;;0.10;0.10;;;;;;;11.30;66.59;97990.84;5304274;26;33645;-82
2023/03/27 08:26:41;;;;;;;0.00;0.00;;;;;;;11.51;65.34;97999.75;5322542;26;33688;-82
2023/03/27 08:29:11;;;;;;;0.20;0.20;;;;;;;11.61;65.59;97993.78;5322877;26;32707;-82
2023/03/27 08:31:42;;;;;;;0.43;0.10;;;;;;;11.76;64.96;97989.94;5320722;26;32797;-82
2023/03/27 08:34:11;;;;;;;0.00;0.00;;;;;;;11.67;65.56;97993.31;5303601;26;33162;-82
2023/03/27 08:36:45;;;;;;;0.60;0.60;;;;;;;11.49;67.04;97980.56;5304745;26;32962;-82
2023/03/27 08:39:14;;;;;;;0.10;0.10;;;;;;;11.92;65.67;97994.94;5304304;26;32756;-82
2023/03/27 08:41:49;;;;;;;0.10;0.10;;;;;;;11.86;66.11;97995.41;5304196;26;34143;-82
2023/03/27 08:44:22;;;;;;;0.03;0.03;;;;;;;11.87;66.31;98005.00;5304219;26;32267;-82
2023/03/27 08:49:38;;;;;;;0.00;0.00;;;;;;;11.96;66.67;98005.16;5321633;26;32789;-82
2023/03/27 08:52:16;;;;;;;0.22;0.20;;;;;;;11.91;67.06;98007.28;5322659;26;34133;-82
2023/03/27 08:54:56;;;;;;;0.08;0.08;;;;;;;12.09;66.63;98001.53;5322417;26;31601;-81
2023/03/27 08:57:31;;;;;;;0.52;0.47;;;;;;;12.12;66.66;98007.44;5323108;26;33847;-81
2023/03/27 09:00:08;;;;;;;2.90;2.00;;;;;;;12.10;66.61;98006.69;5323909;26;33967;-81
2023/03/27 09:02:53;;;;;;;3.40;3.17;;;;;;;12.05;66.87;98004.41;5323486;26;33353;-81
2023/03/27 09:05:41;;;;;;;0.88;0.88;;;;;;;12.25;66.04;98002.03;5306598;26;32908;-80
2023/03/27 09:08:56;;;;;;;0.37;0.37;;;;;;;12.28;66.00;97999.97;5305556;26;33287;-79
2023/03/27 09:11:43;;;;;;;0.10;0.10;;;;;;;11.75;67.77;98007.62;5322941;26;34283;-79
2023/03/27 09:14:33;;;;;;;0.30;0.15;;;;;;;11.90;67.15;98005.63;5307023;26;34597;-79
2023/03/27 09:17:11;;;;;;;0.00;0.00;;;;;;;11.81;67.45;98001.00;5323597;26;33199;-81
2023/03/27 09:20:05;;;;;;;0.00;0.00;;;;;;;11.80;67.32;98004.63;5305952;26;32971;-79
2023/03/27 09:22:48;;;;;;;0.00;0.00;;;;;;;11.91;66.42;98006.47;5305862;26;33816;-80
2023/03/27 09:25:28;;;;;;;0.35;0.10;;;;;;;11.54;67.52;97999.53;5323964;26;33277;-80
2023/03/27 09:28:15;;;;;;;0.65;0.60;;;;;;;11.36;68.24;97998.28;5324936;26;33285;-79
2023/03/27 09:30:52;;;;;;;0.95;0.95;;;;;;;11.71;66.90;98000.03;5324031;26;34325;-79
2023/03/27 09:33:26;;;;;;;0.05;0.05;;;;;;;11.74;66.23;98005.09;5323278;26;33044;-81
2023/03/27 09:35:57;;;;;;;0.00;0.00;;;;;;;11.23;68.74;97995.72;5324163;26;34013;-80
2023/03/27 09:38:34;;;;;;;0.43;0.32;;;;;;;11.43;68.01;98015.34;5305336;26;32790;-81
2023/03/27 09:41:13;;;;;;;0.20;0.20;;;;;;;11.47;68.15;98014.16;5307361;26;34453;-80
2023/03/27 09:44:03;;;;;;;0.00;0.00;;;;;;;11.49;68.57;98014.06;5315587;26;34595;-80
2023/03/27 09:46:35;;;;;;;0.03;0.03;;;;;;;11.26;69.87;98026.37;5305377;26;32779;-80
2023/03/27 09:49:13;;;;;;;0.25;0.20;;;;;;;10.97;71.00;98018.81;5323286;26;33850;-80
2023/03/27 09:51:49;;;;;;;0.68;0.37;;;;;;;11.22;70.53;98027.56;5305010;26;32457;-80
2023/03/27 09:54:20;;;;;;;0.40;0.40;;;;;;;11.08;71.11;98025.94;5305637;26;33142;-80
2023/03/27 09:59:38;;;;;;;8.70;6.03;;;;;;;11.67;68.29;98036.44;5307970;26;33322;-80
2023/03/27 10:02:20;;;;;;;1.65;1.55;;;;;;;11.64;68.55;98039.34;5306033;26;33827;-80
2023/03/27 10:05:03;;;;;;;4.55;0.43;;;;;;;11.74;68.41;98050.06;5299033;26;33712;-80
2023/03/27 10:07:33;;;;;;;0.00;0.00;;;;;;;11.73;68.47;98051.03;5305840;26;34481;-79
2023/03/27 10:10:18;;;;;;;0.00;0.00;;;;;;;11.75;68.09;98057.84;5324686;26;33985;-80
2023/03/27 10:12:54;;;;;;;0.20;0.20;;;;;;;11.70;68.52;98059.16;5289193;26;34315;-79
2023/03/27 10:15:44;;;;;;;0.28;0.28;;;;;;;11.80;67.97;98062.78;5306333;26;34445;-79
2023/03/27 10:18:26;;;;;;;0.28;0.28;;;;;;;11.82;67.79;98066.22;5286088;26;33877;-80
2023/03/27 10:21:12;;;;;;;0.10;0.10;;;;;;;11.79;67.38;98067.25;5324976;26;33973;-80
2023/03/27 10:23:48;;;;;;;0.43;0.30;;;;;;;11.76;67.38;98066.63;5322947;26;34158;-80
2023/03/27 10:26:20;;;;;;;0.00;0.00;;;;;;;11.68;66.42;98059.31;5304307;26;33021;-79
2023/03/27 10:28:50;;;;;;;0.10;0.10;;;;;;;11.69;66.17;98062.78;5304401;26;34118;-79
2023/03/27 10:31:33;;;;;;;0.20;0.20;;;;;;;11.60;66.33;98061.66;5323728;26;33357;-80
2023/03/27 10:34:10;;;;;;;0.00;0.00;;;;;;;11.54;66.63;98076.19;5287779;26;34110;-80
2023/03/27 10:36:46;;;;;;;0.00;0.00;;;;;;;11.33;66.58;98061.09;5324534;26;33650;-79
2023/03/27 10:41:55;;;;;;;0.52;0.22;;;;;;;11.35;67.53;98080.34;5305520;26;33223;-80
2023/03/27 10:44:30;;;;;;;0.93;0.30;;;;;;;11.49;66.62;98080.16;5324492;26;33833;-79
2023/03/27 10:47:00;;;;;;;0.03;0.03;;;;;;;11.37;66.81;98092.47;5322854;26;32834;-79
2023/03/27 10:49:41;;;;;;;0.00;0.00;;;;;;;11.29;67.64;98084.25;5305131;26;33542;-81
2023/03/27 10:52:25;;;;;;;0.00;0.00;;;;;;;11.24;68.37;98081.94;5306277;26;33196;-80
2023/03/27 10:54:55;;;;;;;;;;;;;;;11.06;69.03;98087.72;5304036;26;33733;-80
2023/03/27 10:57:33;;;;;;;0.15;0.15;;;;;;;11.58;67.64;98091.81;5342160;26;35112;-80
2023/03/27 11:00:10;;;;;;;0.00;0.00;;;;;;;11.56;67.66;98091.09;5304222;26;34325;-79
2023/03/27 11:02:59;;;;;;;0.00;0.00;;;;;;;11.70;67.02;98097.03;5305154;26;32839;-80
2023/03/27 11:05:37;;;;;;;0.00;0.00;;;;;;;11.66;67.35;98092.09;5322844;26;34198;-80
2023/03/27 11:08:21;;;;;;;0.05;0.03;;;;;;;11.80;66.12;98089.25;5307652;26;35781;-80
2023/03/27 11:10:57;;;;;;;0.08;0.08;;;;;;;11.57;65.54;98095.41;5323700;26;33663;-80
2023/03/27 11:13:32;;;;;;;1.30;0.75;;;;;;;10.73;69.76;98099.81;5305480;26;32395;-82
2023/03/27 11:16:20;;;;;;;0.45;0.45;;;;;;;11.22;67.93;98099.72;5325756;26;34679;-80
2023/03/27 11:19:10;;;;;;;0.20;0.20;;;;;;;11.08;69.11;98097.25;5323626;26;34059;-79
2023/03/27 11:21:56;;;;;;;3.25;1.65;;;;;;;10.73;71.11;98099.81;5305094;26;32337;-81
2023/03/27 11:24:40;;;;;;;2.47;1.45;;;;;;;11.21;69.09;98100.69;5305851;26;31980;-95
2023/03/27 11:27:37;;;;;;;1.87;1.75;;;;;;;10.76;70.28;98108.31;5294641;26;33754;-96
2023/03/27 11:33:50;;;;;;;1.45;0.60;;;;;;;10.89;70.15;98110.94;5331234;26;35908;-91
2023/03/27 11:36:53;;;;;;;0.93;0.87;;;;;;;10.36;71.95;98115.56;5330985;26;34325;-95
2023/03/27 11:40:03;;;;;;;0.50;0.50;;;;;;;10.71;70.99;98114.88;5327860;26;33304;-94
2023/03/27 11:43:05;;;;;;;1.48;1.37;;;;;;;11.20;68.68;98108.69;5368990;26;36292;-95
2023/03/27 11:45:58;;;;;;;2.78;1.58;;;;;;;11.07;69.66;98118.50;5290553;27;34032;-96
2023/03/27 11:49:15;;;;;;;0.52;0.52;;;;;;;10.93;70.22;98120.31;5349912;26;34200;-93
2023/03/27 11:52:01;;;;;;;0.65;0.65;;;;;;;10.87;70.14;98115.50;5310255;26;32950;-93
2023/03/27 11:55:05;;;;;;;0.55;0.55;;;;;;;11.10;70.18;98110.31;5329679;26;33807;-93
2023/03/27 11:58:03;;;;;;;2.00;1.80;;;;;;;10.62;72.23;98116.38;5291235;27;33975;-93
2023/03/27 12:01:08;;;;;;;0.30;0.30;;;;;;;10.81;70.56;98115.91;5330216;26;32364;-94
2023/03/27 12:04:25;;;;;;;1.37;1.27;;;;;;;10.99;69.34;98124.31;5310075;26;32748;-95
2023/03/27 12:07:27;;;;;;;1.65;1.58;;;;;;;10.54;70.50;98118.72;5332152;26;33159;-94
2023/03/27 12:10:37;;;;;;;0.80;0.77;;;;;;;11.07;67.93;98118.50;5355141;26;34719;-95
2023/03/27 12:17:08;;;;;;;0.30;0.30;;;;;;;10.74;66.71;98127.88;5345256;26;34841;-95
2023/03/27 12:20:16;;;;;;;1.70;1.60;;;;;;;10.56;70.15;98158.19;5309616;27;32849;-95
2023/03/27 12:23:29;;;;;;;0.52;0.40;;;;;;;10.72;66.96;98142.97;5307513;27;34124;-93
2023/03/27 12:26:14;;;;;;;0.70;0.68;;;;;;;10.18;70.70;98164.28;5365599;26;33283;-94
2023/03/27 12:29:42;;;;;;;0.68;0.68;;;;;;;10.82;67.09;98162.47;5329757;26;36631;-95
2023/03/27 12:32:29;;;;;;;0.17;0.17;;;;;;;11.05;66.66;98166.13;5313397;26;32821;-93
2023/03/27 12:35:27;;;;;;;0.80;0.80;;;;;;;11.25;65.67;98167.31;5325953;26;32977;-95
2023/03/27 12:38:35;;;;;;;0.22;0.22;;;;;;;10.98;66.24;98178.09;5304468;27;32851;-94